Time;durP1;ratioP1;P1;durP2;ratioP2;P2;SDS_P1;SDS_P2;PMS_P1;PMS_P2;Temp;Humidity;BMP_temperature;BMP_pressure;BME280_temperature;BME280_humidity;BME280_pressure;Samples;Min_cycle;Max_cycle;Signal;HPM_P1;HPM_P2
2023/08/16 00:01:10;;;;;;;;;;;;;;;;;;6243709;28;20788;-81
2023/08/16 00:04:11;;;;;;;9.25;8.32;;;;;;;;;;6243967;28;19933;-80
2023/08/16 00:07:12;;;;;;;9.63;8.20;;;;;;;;;;6242889;28;20049;-82
2023/08/16 00:10:14;;;;;;;9.20;8.25;;;;;;;;;;6245301;28;20045;-81
2023/08/16 00:13:17;;;;;;;10.15;7.78;;;;;;;;;;6244429;28;20285;-81
2023/08/16 00:16:18;;;;;;;8.20;7.20;;;;;;;;;;6244360;28;20063;-81
2023/08/16 00:19:20;;;;;;;10.98;7.50;;;;;;;;;;6244227;28;20133;-81
2023/08/16 00:22:21;;;;;;;9.48;8.48;;;;;;;;;;6241839;28;20108;-81
2023/08/16 00:25:22;;;;;;;9.23;7.80;;;;;;;;;;6241864;28;20042;-81
2023/08/16 00:28:25;;;;;;;8.90;8.00;;;;;;;;;;6239223;28;20229;-80
2023/08/16 00:31:27;;;;;;;;;;;;;;;;;;6237056;28;20054;-77
2023/08/16 00:34:28;;;;;;;12.40;8.30;;;;;;;;;;6241338;28;20227;-79
2023/08/16 00:37:30;;;;;;;8.77;7.68;;;;;;;;;;6237908;28;20341;-79
2023/08/16 00:40:31;;;;;;;9.15;8.23;;;;;;;;;;6239553;28;20463;-79
2023/08/16 00:43:34;;;;;;;9.32;8.35;;;;;;;;;;6237866;28;20046;-78
2023/08/16 00:46:35;;;;;;;9.15;7.97;;;;;;;;;;6240629;28;20268;-78
2023/08/16 00:49:39;;;;;;;9.65;8.65;;;;;;;;;;6240238;28;20103;-78
2023/08/16 00:52:41;;;;;;;10.40;8.77;;;;;;;;;;6238942;28;20166;-77
2023/08/16 00:55:43;;;;;;;9.38;8.45;;;;;;;;;;6238336;28;20456;-78
2023/08/16 00:58:46;;;;;;;9.52;8.63;;;;;;;;;;6240340;28;20045;-82
2023/08/16 01:01:47;;;;;;;;;;;;;;;;;;6237170;28;20058;-83
2023/08/16 01:04:49;;;;;;;12.98;9.27;;;;;;;;;;6242279;28;19929;-84
2023/08/16 01:07:50;;;;;;;9.50;8.45;;;;;;;;;;6242120;28;20045;-80
2023/08/16 01:10:54;;;;;;;11.35;8.27;;;;;;;;;;6240304;28;20076;-78
2023/08/16 01:13:58;;;;;;;9.95;7.95;;;;;;;;;;6238316;28;20387;-77
2023/08/16 01:16:59;;;;;;;11.05;7.72;;;;;;;;;;6242304;28;20143;-79
2023/08/16 01:20:01;;;;;;;9.32;7.05;;;;;;;;;;6237867;28;20050;-80
2023/08/16 01:23:05;;;;;;;10.35;6.95;;;;;;;;;;6236891;28;20175;-78
2023/08/16 01:26:07;;;;;;;11.18;7.15;;;;;;;;;;6238182;28;20041;-78
2023/08/16 01:29:11;;;;;;;7.20;6.50;;;;;;;;;;6240721;28;20059;-77
2023/08/16 01:32:13;;;;;;;7.57;6.88;;;;;;;;;;6238186;28;20050;-78
2023/08/16 01:35:15;;;;;;;8.85;7.30;;;;;;;;;;6240565;28;20049;-77
2023/08/16 01:38:16;;;;;;;6.70;6.00;;;;;;;;;;6237754;28;20058;-78
2023/08/16 01:41:21;;;;;;;7.80;5.90;;;;;;;;;;6238588;28;20057;-77
2023/08/16 01:44:25;;;;;;;12.30;6.13;;;;;;;;;;6239255;28;20091;-79
2023/08/16 01:47:27;;;;;;;6.88;5.53;;;;;;;;;;6239888;28;20380;-78
2023/08/16 01:50:28;;;;;;;9.73;5.70;;;;;;;;;;6237746;28;20662;-78
2023/08/16 01:53:30;;;;;;;8.73;5.75;;;;;;;;;;6240535;28;20108;-82
2023/08/16 01:56:31;;;;;;;7.40;5.68;;;;;;;;;;6234118;28;20107;-81
2023/08/16 01:59:34;;;;;;;8.35;5.45;;;;;;;;;;6236449;28;20057;-80
2023/08/16 02:02:35;;;;;;;6.80;5.18;;;;;;;;;;6237730;28;20337;-80
2023/08/16 02:05:37;;;;;;;6.18;4.63;;;;;;;;;;6237137;28;20326;-79
2023/08/16 02:08:38;;;;;;;9.93;5.15;;;;;;;;;;6237548;28;20058;-80
2023/08/16 02:11:40;;;;;;;7.93;5.07;;;;;;;;;;6235193;28;20236;-82
2023/08/16 02:14:42;;;;;;;6.03;5.40;;;;;;;;;;6241314;28;20372;-80
2023/08/16 02:17:44;;;;;;;7.25;5.38;;;;;;;;;;6237493;28;20062;-80
2023/08/16 02:20:45;;;;;;;6.80;5.30;;;;;;;;;;6242588;28;20072;-82
2023/08/16 02:23:47;;;;;;;6.45;5.30;;;;;;;;;;6237086;28;20108;-79
2023/08/16 02:26:48;;;;;;;6.28;5.57;;;;;;;;;;6240596;28;20050;-78
2023/08/16 02:29:51;;;;;;;7.25;5.53;;;;;;;;;;6240512;28;20056;-78
2023/08/16 02:32:53;;;;;;;9.00;6.05;;;;;;;;;;6242192;28;20058;-79
2023/08/16 02:35:55;;;;;;;6.65;5.72;;;;;;;;;;6242566;28;20045;-78
2023/08/16 02:38:56;;;;;;;8.05;5.80;;;;;;;;;;6239858;28;20049;-78
2023/08/16 02:41:59;;;;;;;7.30;5.82;;;;;;;;;;6237270;28;20045;-84
2023/08/16 02:45:01;;;;;;;6.63;5.40;;;;;;;;;;6237535;28;20053;-79
2023/08/16 02:48:03;;;;;;;9.00;6.75;;;;;;;;;;6238178;28;20269;-79
2023/08/16 02:51:05;;;;;;;8.73;6.55;;;;;;;;;;6244342;28;20058;-83
2023/08/16 02:54:06;;;;;;;6.75;5.80;;;;;;;;;;6242517;28;20049;-84
2023/08/16 02:57:08;;;;;;;7.68;6.88;;;;;;;;;;6243138;28;20061;-86
2023/08/16 03:00:13;;;;;;;7.75;6.78;;;;;;;;;;6240767;28;20057;-86
2023/08/16 03:03:14;;;;;;;6.20;5.55;;;;;;;;;;6240059;28;20360;-84
2023/08/16 03:06:16;;;;;;;12.68;6.50;;;;;;;;;;6243551;28;20046;-84
2023/08/16 03:09:18;;;;;;;6.50;5.90;;;;;;;;;;6242044;28;20049;-83
2023/08/16 03:12:19;;;;;;;7.97;6.50;;;;;;;;;;6240278;28;20391;-84
2023/08/16 03:15:23;;;;;;;6.53;5.85;;;;;;;;;;6242297;28;20295;-84
2023/08/16 03:18:24;;;;;;;6.72;6.13;;;;;;;;;;6240268;28;20325;-83
2023/08/16 03:21:26;;;;;;;6.85;6.15;;;;;;;;;;6241935;28;20060;-83
2023/08/16 03:24:27;;;;;;;7.47;6.45;;;;;;;;;;6238463;28;20056;-85
2023/08/16 03:27:28;;;;;;;7.22;6.22;;;;;;;;;;6241844;28;20176;-83
2023/08/16 03:30:31;;;;;;;6.95;6.28;;;;;;;;;;6240751;28;20057;-82
2023/08/16 03:33:33;;;;;;;7.57;5.55;;;;;;;;;;6240663;28;20049;-81
2023/08/16 03:36:34;;;;;;;8.25;6.68;;;;;;;;;;6245691;28;20061;-81
2023/08/16 03:39:36;;;;;;;6.00;5.43;;;;;;;;;;6243893;28;20672;-81
2023/08/16 03:42:37;;;;;;;7.03;6.32;;;;;;;;;;6241558;28;20061;-80
2023/08/16 03:45:40;;;;;;;6.40;5.60;;;;;;;;;;6238781;28;20050;-83
2023/08/16 03:48:41;;;;;;;6.35;5.68;;;;;;;;;;6238906;28;20111;-82
2023/08/16 03:51:43;;;;;;;9.55;6.45;;;;;;;;;;6240444;28;20333;-81
2023/08/16 03:54:44;;;;;;;7.88;6.13;;;;;;;;;;6240755;28;20061;-81
2023/08/16 03:57:46;;;;;;;6.63;5.93;;;;;;;;;;6244169;28;20064;-81
2023/08/16 04:00:50;;;;;;;6.53;5.28;;;;;;;;;;6237922;28;20234;-80
2023/08/16 04:03:51;;;;;;;6.60;5.88;;;;;;;;;;6241038;28;20049;-81
2023/08/16 04:06:53;;;;;;;7.35;5.60;;;;;;;;;;6241165;28;20288;-82
2023/08/16 04:09:54;;;;;;;6.40;5.80;;;;;;;;;;6235961;28;20050;-80
2023/08/16 04:12:56;;;;;;;8.00;6.13;;;;;;;;;;6240317;28;20088;-81
2023/08/16 04:15:59;;;;;;;6.63;5.57;;;;;;;;;;6241271;28;20045;-80
2023/08/16 04:19:01;;;;;;;8.80;5.70;;;;;;;;;;6238790;28;20242;-81
2023/08/16 04:22:02;;;;;;;6.25;5.65;;;;;;;;;;6238771;28;20046;-79
2023/08/16 04:25:04;;;;;;;6.50;5.80;;;;;;;;;;6240600;28;20100;-82
2023/08/16 04:28:06;;;;;;;8.40;5.65;;;;;;;;;;6239583;28;20058;-81
2023/08/16 04:31:09;;;;;;;7.72;6.07;;;;;;;;;;6239426;28;20052;-81
2023/08/16 04:34:10;;;;;;;7.32;6.05;;;;;;;;;;6238463;28;20049;-80
2023/08/16 04:37:11;;;;;;;8.52;6.80;;;;;;;;;;6241921;28;20057;-81
2023/08/16 04:40:13;;;;;;;9.65;6.15;;;;;;;;;;6240303;28;20053;-80
2023/08/16 04:43:14;;;;;;;8.45;5.97;;;;;;;;;;6240793;28;20080;-81
2023/08/16 04:46:17;;;;;;;6.55;5.72;;;;;;;;;;6239146;28;20373;-81
2023/08/16 04:49:19;;;;;;;6.90;5.63;;;;;;;;;;6238556;28;20231;-80
2023/08/16 04:52:20;;;;;;;8.57;6.50;;;;;;;;;;6240193;28;20061;-80
2023/08/16 04:55:22;;;;;;;7.93;5.95;;;;;;;;;;6240142;28;20057;-81
2023/08/16 04:58:23;;;;;;;7.80;5.55;;;;;;;;;;6236961;28;20061;-82
2023/08/16 05:01:26;;;;;;;6.68;5.40;;;;;;;;;;6239354;28;20343;-81
2023/08/16 05:04:28;;;;;;;6.28;5.07;;;;;;;;;;6238806;28;20583;-82
2023/08/16 05:07:29;;;;;;;6.28;4.82;;;;;;;;;;6238210;28;20061;-83
2023/08/16 05:10:30;;;;;;;6.78;4.40;;;;;;;;;;6236576;28;20367;-81
2023/08/16 05:13:32;;;;;;;6.22;4.10;;;;;;;;;;6236911;28;20042;-81
2023/08/16 05:16:35;;;;;;;6.10;4.20;;;;;;;;;;6239498;28;20049;-82
2023/08/16 05:19:36;;;;;;;8.80;4.43;;;;;;;;;;6235767;28;20096;-82
2023/08/16 05:22:38;;;;;;;5.28;3.92;;;;;;;;;;6236550;28;20100;-82
2023/08/16 05:25:39;;;;;;;4.70;4.30;;;;;;;;;;6237674;28;20245;-81
2023/08/16 05:28:40;;;;;;;6.40;4.18;;;;;;;;;;6239624;28;20400;-82
2023/08/16 05:31:43;;;;;;;5.05;4.10;;;;;;;;;;6239147;28;20054;-82
2023/08/16 05:34:45;;;;;;;7.55;4.50;;;;;;;;;;6238366;28;20157;-82
2023/08/16 05:37:46;;;;;;;4.38;3.97;;;;;;;;;;6237707;28;20057;-82
2023/08/16 05:40:47;;;;;;;5.80;3.85;;;;;;;;;;6239129;28;20065;-82
2023/08/16 05:43:49;;;;;;;9.23;3.95;;;;;;;;;;6236302;28;20724;-81
2023/08/16 05:46:52;;;;;;;4.43;3.60;;;;;;;;;;6237760;28;20088;-82
2023/08/16 05:49:53;;;;;;;6.72;4.50;;;;;;;;;;6238617;28;20053;-81
2023/08/16 05:52:55;;;;;;;7.95;4.20;;;;;;;;;;6238624;28;20376;-82
2023/08/16 05:55:56;;;;;;;4.85;4.05;;;;;;;;;;6240001;28;20286;-82
2023/08/16 05:58:58;;;;;;;5.43;3.92;;;;;;;;;;6238007;28;20049;-81
2023/08/16 06:02:00;;;;;;;4.25;3.80;;;;;;;;;;6238574;28;20050;-81
2023/08/16 06:05:02;;;;;;;9.10;4.20;;;;;;;;;;6241804;28;20065;-82
2023/08/16 06:08:04;;;;;;;6.07;3.90;;;;;;;;;;6237723;28;20364;-82
2023/08/16 06:11:06;;;;;;;7.28;3.65;;;;;;;;;;6238737;28;20053;-82
2023/08/16 06:14:07;;;;;;;6.10;4.15;;;;;;;;;;6236698;28;20048;-82
2023/08/16 06:17:11;;;;;;;4.68;3.67;;;;;;;;;;6239285;28;20068;-83
2023/08/16 06:20:12;;;;;;;5.28;4.30;;;;;;;;;;6237410;28;20053;-82
2023/08/16 06:23:14;;;;;;;8.90;3.67;;;;;;;;;;6237762;28;20058;-81
2023/08/16 06:26:16;;;;;;;4.50;3.88;;;;;;;;;;6242929;28;20668;-82
2023/08/16 06:29:18;;;;;;;4.97;3.78;;;;;;;;;;6239484;28;20237;-78
2023/08/16 06:32:21;;;;;;;5.15;4.00;;;;;;;;;;6245773;28;20058;-77
2023/08/16 06:35:22;;;;;;;8.93;3.97;;;;;;;;;;6243588;28;20049;-78
2023/08/16 06:38:23;;;;;;;6.25;4.80;;;;;;;;;;6241727;28;20046;-81
2023/08/16 06:41:25;;;;;;;6.35;5.35;;;;;;;;;;6243342;28;20053;-79
2023/08/16 06:44:27;;;;;;;9.40;5.13;;;;;;;;;;6242984;28;20238;-78
2023/08/16 06:47:30;;;;;;;7.75;6.95;;;;;;;;;;6242231;28;20053;-78
2023/08/16 06:50:32;;;;;;;8.77;6.93;;;;;;;;;;6241641;28;20356;-85
2023/08/16 06:53:33;;;;;;;8.68;6.13;;;;;;;;;;6240529;28;20045;-77
2023/08/16 06:56:35;;;;;;;9.18;6.80;;;;;;;;;;6243847;28;20054;-78
2023/08/16 06:59:37;;;;;;;8.60;6.85;;;;;;;;;;6242651;28;20069;-78
2023/08/16 07:02:39;;;;;;;8.45;6.55;;;;;;;;;;6242130;28;20058;-78
2023/08/16 07:05:41;;;;;;;7.03;6.22;;;;;;;;;;6241722;28;20230;-77
2023/08/16 07:08:42;;;;;;;6.93;5.95;;;;;;;;;;6244177;28;20057;-77
2023/08/16 07:11:44;;;;;;;9.02;6.22;;;;;;;;;;6239716;28;20064;-77
2023/08/16 07:14:45;;;;;;;8.02;7.13;;;;;;;;;;6242088;28;20052;-79
2023/08/16 07:17:48;;;;;;;8.75;6.72;;;;;;;;;;6236947;28;20069;-78
2023/08/16 07:20:49;;;;;;;8.65;7.65;;;;;;;;;;6240122;28;20399;-78
2023/08/16 07:23:51;;;;;;;7.88;7.07;;;;;;;;;;6241241;28;20046;-78
2023/08/16 07:26:52;;;;;;;8.00;7.22;;;;;;;;;;6244281;28;20049;-79
2023/08/16 07:29:54;;;;;;;9.30;8.05;;;;;;;;;;6242195;28;20050;-78
2023/08/16 07:32:57;;;;;;;9.23;7.70;;;;;;;;;;6242805;28;20228;-79
2023/08/16 07:36:00;;;;;;;12.07;8.60;;;;;;;;;;6240779;28;20057;-76
2023/08/16 07:39:01;;;;;;;11.85;8.93;;;;;;;;;;6239679;28;20100;-78
2023/08/16 07:42:03;;;;;;;9.88;7.25;;;;;;;;;;6240714;28;20045;-78
2023/08/16 07:45:05;;;;;;;10.38;8.70;;;;;;;;;;6239288;28;20049;-78
2023/08/16 07:48:08;;;;;;;12.48;9.18;;;;;;;;;;6243709;28;20412;-78
2023/08/16 07:51:09;;;;;;;;;;;;;;;;;;6244224;28;20063;-79
2023/08/16 07:54:10;;;;;;;8.70;7.85;;;;;;;;;;6241600;28;19964;-78
2023/08/16 07:57:12;;;;;;;12.25;8.90;;;;;;;;;;6242311;28;20064;-76
2023/08/16 08:00:14;;;;;;;10.30;7.97;;;;;;;;;;6240002;28;20084;-76
2023/08/16 08:03:17;;;;;;;8.82;7.70;;;;;;;;;;6240641;28;20127;-78
2023/08/16 08:06:19;;;;;;;10.95;9.40;;;;;;;;;;6240815;28;20069;-78
2023/08/16 08:09:20;;;;;;;9.45;8.55;;;;;;;;;;6243868;28;20056;-76
2023/08/16 08:12:22;;;;;;;10.20;9.20;;;;;;;;;;6240434;28;20137;-78
2023/08/16 08:15:23;;;;;;;9.40;8.45;;;;;;;;;;6240183;28;20137;-76
2023/08/16 08:18:26;;;;;;;9.45;8.55;;;;;;;;;;6239064;28;20057;-75
2023/08/16 08:21:27;;;;;;;;;;;;;;;;;;6239056;28;20052;-76
2023/08/16 08:24:29;;;;;;;8.35;7.30;;;;;;;;;;6239269;28;20382;-76
2023/08/16 08:27:30;;;;;;;9.02;8.00;;;;;;;;;;6240952;28;20337;-79
2023/08/16 08:30:33;;;;;;;7.50;6.75;;;;;;;;;;6239280;28;20052;-78
2023/08/16 08:33:36;;;;;;;7.60;6.70;;;;;;;;;;6240841;28;20056;-76
2023/08/16 08:36:37;;;;;;;7.38;6.65;;;;;;;;;;6241201;28;20041;-75
2023/08/16 08:39:38;;;;;;;8.27;7.47;;;;;;;;;;6241191;28;20045;-76
2023/08/16 08:42:40;;;;;;;8.57;7.25;;;;;;;;;;6240254;28;20062;-78
2023/08/16 08:45:46;;;;;;;9.10;7.38;;;;;;;;;;6237775;28;20068;-78
2023/08/16 08:48:49;;;;;;;7.18;6.43;;;;;;;;;;6240262;28;21847;-75
2023/08/16 08:51:50;;;;;;;6.80;6.00;;;;;;;;;;6238941;28;20070;-78
2023/08/16 08:54:51;;;;;;;8.63;7.07;;;;;;;;;;6239365;28;20230;-76
2023/08/16 08:57:55;;;;;;;7.50;5.57;;;;;;;;;;6239369;28;20060;-76
2023/08/16 09:00:57;;;;;;;7.38;5.90;;;;;;;;;;6237748;28;20057;-76
2023/08/16 09:04:00;;;;;;;6.93;6.22;;;;;;;;;;6239488;28;20046;-76
2023/08/16 09:07:04;;;;;;;6.03;5.50;;;;;;;;;;6240782;28;20084;-76
2023/08/16 09:10:06;;;;;;;6.32;5.68;;;;;;;;;;6238665;28;20241;-78
2023/08/16 09:13:10;;;;;;;6.43;5.75;;;;;;;;;;6237511;28;20113;-76
2023/08/16 09:16:11;;;;;;;8.35;6.72;;;;;;;;;;6239558;28;20049;-76
2023/08/16 09:19:15;;;;;;;7.30;6.27;;;;;;;;;;6239139;28;20802;-77
2023/08/16 09:22:17;;;;;;;7.22;5.63;;;;;;;;;;6238158;28;20079;-76
2023/08/16 09:25:19;;;;;;;6.70;5.60;;;;;;;;;;6238076;28;20365;-76
2023/08/16 09:28:21;;;;;;;7.13;6.13;;;;;;;;;;6238094;28;20104;-76
2023/08/16 09:31:23;;;;;;;5.90;5.10;;;;;;;;;;6242100;28;20265;-75
2023/08/16 09:34:26;;;;;;;5.73;4.73;;;;;;;;;;6240251;28;20092;-76
2023/08/16 09:37:27;;;;;;;6.20;5.43;;;;;;;;;;6245394;28;20054;-74
2023/08/16 09:40:29;;;;;;;6.77;5.13;;;;;;;;;;6240115;28;20049;-76
2023/08/16 09:43:32;;;;;;;6.75;4.60;;;;;;;;;;6244812;28;20832;-75
2023/08/16 09:46:34;;;;;;;6.43;5.40;;;;;;;;;;6243028;28;20333;-75
2023/08/16 09:49:38;;;;;;;8.17;5.20;;;;;;;;;;6243300;28;20062;-75
2023/08/16 09:52:40;;;;;;;5.95;5.20;;;;;;;;;;6244468;28;22111;-74
2023/08/16 09:55:42;;;;;;;5.78;4.43;;;;;;;;;;6244274;28;20065;-74
2023/08/16 09:58:43;;;;;;;6.38;4.53;;;;;;;;;;6246690;28;20096;-73
2023/08/16 10:01:45;;;;;;;7.00;4.60;;;;;;;;;;6246163;28;20100;-75
2023/08/16 10:04:49;;;;;;;7.82;5.20;;;;;;;;;;6247963;28;20111;-76
2023/08/16 10:07:50;;;;;;;5.60;5.10;;;;;;;;;;6248273;28;20068;-76
2023/08/16 10:10:53;;;;;;;5.97;5.38;;;;;;;;;;6248098;28;20060;-76
2023/08/16 10:13:55;;;;;;;5.03;4.63;;;;;;;;;;6246799;28;20061;-77
2023/08/16 10:16:59;;;;;;;6.25;5.10;;;;;;;;;;6245311;28;20056;-75
2023/08/16 10:20:05;;;;;;;4.78;4.38;;;;;;;;;;6245920;28;20253;-75
2023/08/16 10:23:08;;;;;;;5.35;4.65;;;;;;;;;;6241794;28;20057;-77
2023/08/16 10:26:13;;;;;;;7.25;4.63;;;;;;;;;;6244156;28;20061;-76
2023/08/16 10:29:15;;;;;;;7.13;5.10;;;;;;;;;;6241708;28;20380;-76
2023/08/16 10:32:17;;;;;;;;;;;;;;;;;;6245777;28;20037;-76
2023/08/16 10:35:20;;;;;;;7.75;4.63;;;;;;;;;;6248454;28;19917;-77
2023/08/16 10:38:21;;;;;;;5.70;4.70;;;;;;;;;;6243899;28;20053;-75
2023/08/16 10:41:23;;;;;;;7.15;5.15;;;;;;;;;;6242434;28;20065;-75
2023/08/16 10:44:25;;;;;;;7.57;5.32;;;;;;;;;;6241018;28;20116;-76
2023/08/16 10:47:29;;;;;;;5.18;4.68;;;;;;;;;;6243075;28;20061;-79
2023/08/16 10:50:36;;;;;;;5.90;5.30;;;;;;;;;;6242463;28;20049;-79
2023/08/16 10:53:39;;;;;;;6.28;4.93;;;;;;;;;;6240685;28;20056;-80
2023/08/16 10:56:47;;;;;;;5.32;4.75;;;;;;;;;;6241043;28;20049;-78
2023/08/16 10:59:49;;;;;;;7.60;4.80;;;;;;;;;;6240960;28;20053;-81
2023/08/16 11:02:54;;;;;;;8.85;4.90;;;;;;;;;;6241009;28;20951;-81
2023/08/16 11:05:58;;;;;;;6.35;4.80;;;;;;;;;;6238987;28;20053;-78
2023/08/16 11:09:01;;;;;;;4.80;4.30;;;;;;;;;;6241433;28;20107;-78
2023/08/16 11:12:03;;;;;;;5.47;4.72;;;;;;;;;;6239610;28;20069;-79
2023/08/16 11:15:04;;;;;;;5.18;4.60;;;;;;;;;;6244414;28;20092;-76
2023/08/16 11:18:06;;;;;;;5.85;4.47;;;;;;;;;;6240052;28;20341;-78
2023/08/16 11:21:11;;;;;;;5.50;4.97;;;;;;;;;;6240760;28;20058;-80
2023/08/16 11:24:12;;;;;;;5.13;4.30;;;;;;;;;;6239276;28;20049;-80
2023/08/16 11:27:19;;;;;;;5.90;4.75;;;;;;;;;;6245946;28;20644;-81
2023/08/16 11:30:21;;;;;;;6.47;5.40;;;;;;;;;;6247715;28;20066;-81
2023/08/16 11:33:22;;;;;;;7.25;5.05;;;;;;;;;;6248354;28;20057;-81
2023/08/16 11:36:25;;;;;;;5.57;4.53;;;;;;;;;;6243504;28;20057;-81
2023/08/16 11:39:27;;;;;;;6.75;4.95;;;;;;;;;;6244753;28;20046;-82
2023/08/16 11:42:29;;;;;;;6.07;5.47;;;;;;;;;;6244766;28;20074;-82
2023/08/16 11:45:30;;;;;;;5.45;4.95;;;;;;;;;;6243901;28;20060;-81
2023/08/16 11:48:34;;;;;;;5.65;4.70;;;;;;;;;;6246769;28;20141;-80
2023/08/16 11:51:40;;;;;;;6.75;4.80;;;;;;;;;;6246519;28;20099;-79
2023/08/16 11:54:42;;;;;;;6.78;4.85;;;;;;;;;;6248055;28;20057;-79
2023/08/16 11:57:43;;;;;;;;;;;;;;;;;;6239891;28;20065;-81
2023/08/16 12:00:44;;;;;;;6.70;4.68;;;;;;;;;;6245752;28;19932;-81
2023/08/16 12:03:47;;;;;;;5.18;4.43;;;;;;;;;;6246771;28;20049;-80
2023/08/16 12:06:49;;;;;;;6.57;4.93;;;;;;;;;;6245706;28;20119;-79
2023/08/16 12:09:51;;;;;;;5.32;4.82;;;;;;;;;;6239850;28;20054;-79
2023/08/16 12:12:53;;;;;;;7.25;4.60;;;;;;;;;;6242802;28;20113;-81
2023/08/16 12:15:54;;;;;;;7.32;4.78;;;;;;;;;;6243131;28;20093;-80
2023/08/16 12:18:57;;;;;;;5.82;5.30;;;;;;;;;;6245271;28;20046;-80
2023/08/16 12:22:00;;;;;;;6.00;5.00;;;;;;;;;;6245914;28;20102;-78
2023/08/16 12:25:01;;;;;;;4.90;4.40;;;;;;;;;;6243017;28;21297;-79
2023/08/16 12:28:03;;;;;;;5.00;4.45;;;;;;;;;;6245838;28;20041;-78
2023/08/16 12:31:04;;;;;;;7.93;4.68;;;;;;;;;;6247830;28;20052;-82
2023/08/16 12:34:07;;;;;;;4.80;4.40;;;;;;;;;;6243726;28;20392;-82
2023/08/16 12:37:10;;;;;;;7.88;4.95;;;;;;;;;;6247084;28;20052;-79
2023/08/16 12:40:12;;;;;;;5.85;4.75;;;;;;;;;;6242975;28;20052;-80
2023/08/16 12:43:13;;;;;;;4.68;4.28;;;;;;;;;;6241520;28;20079;-80
2023/08/16 12:46:15;;;;;;;6.00;4.03;;;;;;;;;;6240526;28;20046;-82
2023/08/16 12:49:16;;;;;;;4.80;4.22;;;;;;;;;;6238191;28;20084;-81
2023/08/16 12:52:20;;;;;;;5.57;4.20;;;;;;;;;;6239684;28;20057;-83
2023/08/16 12:55:21;;;;;;;4.72;4.25;;;;;;;;;;6239739;28;20125;-82
2023/08/16 12:58:23;;;;;;;5.57;4.25;;;;;;;;;;6240460;28;20237;-82
2023/08/16 13:01:24;;;;;;;4.57;4.18;;;;;;;;;;6238891;28;20349;-82
2023/08/16 13:04:26;;;;;;;6.15;4.38;;;;;;;;;;6237131;28;20057;-80
2023/08/16 13:07:29;;;;;;;7.30;4.95;;;;;;;;;;6240620;28;20048;-82
2023/08/16 13:10:31;;;;;;;5.32;4.68;;;;;;;;;;6238804;28;20057;-79
2023/08/16 13:13:32;;;;;;;4.75;4.35;;;;;;;;;;6241006;28;20062;-80
2023/08/16 13:16:33;;;;;;;6.40;4.47;;;;;;;;;;6237734;28;20226;-80
2023/08/16 13:19:35;;;;;;;5.88;4.28;;;;;;;;;;6237810;28;21167;-80
2023/08/16 13:22:38;;;;;;;7.68;4.20;;;;;;;;;;6235199;28;20099;-81
2023/08/16 13:25:39;;;;;;;5.72;4.22;;;;;;;;;;6240510;28;20215;-79
2023/08/16 13:28:41;;;;;;;4.35;3.97;;;;;;;;;;6240595;28;20368;-82
2023/08/16 13:31:42;;;;;;;4.72;4.10;;;;;;;;;;6236568;28;20050;-81
2023/08/16 13:34:43;;;;;;;7.03;4.40;;;;;;;;;;6242328;28;20053;-81
2023/08/16 13:37:46;;;;;;;5.25;4.53;;;;;;;;;;6240926;28;20057;-80
2023/08/16 13:40:49;;;;;;;5.28;4.40;;;;;;;;;;6238388;28;20050;-81
2023/08/16 13:43:51;;;;;;;5.05;4.25;;;;;;;;;;6238325;28;20050;-81
2023/08/16 13:46:52;;;;;;;7.25;4.68;;;;;;;;;;6238623;28;20053;-80
2023/08/16 13:49:53;;;;;;;4.50;4.07;;;;;;;;;;6237739;28;20053;-79
2023/08/16 13:52:56;;;;;;;4.40;4.00;;;;;;;;;;6237558;28;20053;-79
2023/08/16 13:56:00;;;;;;;4.35;3.95;;;;;;;;;;6239019;28;20053;-80
2023/08/16 13:59:02;;;;;;;4.90;4.18;;;;;;;;;;6239568;28;20049;-83
2023/08/16 14:02:03;;;;;;;8.38;4.38;;;;;;;;;;6238091;28;20050;-83
2023/08/16 14:05:05;;;;;;;4.72;4.00;;;;;;;;;;6237802;28;20588;-81
2023/08/16 14:08:09;;;;;;;4.78;3.95;;;;;;;;;;6237507;28;20424;-81
2023/08/16 14:11:11;;;;;;;5.10;4.20;;;;;;;;;;6241415;28;20271;-81
2023/08/16 14:14:12;;;;;;;4.63;4.22;;;;;;;;;;6240712;28;20061;-83
2023/08/16 14:17:14;;;;;;;4.50;4.10;;;;;;;;;;6238802;28;20284;-80
2023/08/16 14:20:15;;;;;;;4.20;3.80;;;;;;;;;;6239999;28;20041;-83
2023/08/16 14:23:18;;;;;;;7.35;4.35;;;;;;;;;;6243284;28;20072;-79
2023/08/16 14:26:20;;;;;;;5.78;4.53;;;;;;;;;;6241160;28;20061;-82
2023/08/16 14:29:21;;;;;;;6.82;4.13;;;;;;;;;;6239031;28;21018;-82
2023/08/16 14:32:23;;;;;;;4.40;4.00;;;;;;;;;;6238454;28;20123;-83
2023/08/16 14:35:24;;;;;;;5.28;3.80;;;;;;;;;;6239777;28;20339;-78
2023/08/16 14:38:27;;;;;;;5.30;4.65;;;;;;;;;;6239153;28;20068;-81
2023/08/16 14:41:29;;;;;;;5.85;4.47;;;;;;;;;;6239682;28;20321;-82
2023/08/16 14:44:31;;;;;;;4.30;3.90;;;;;;;;;;6242342;28;20045;-83
2023/08/16 14:47:32;;;;;;;4.43;4.13;;;;;;;;;;6243902;28;20054;-81
2023/08/16 14:50:34;;;;;;;4.47;4.07;;;;;;;;;;6244307;28;20053;-81
2023/08/16 14:53:37;;;;;;;5.43;3.95;;;;;;;;;;6241885;28;20049;-77
2023/08/16 14:56:38;;;;;;;4.53;3.65;;;;;;;;;;6243671;28;20229;-83
2023/08/16 14:59:40;;;;;;;4.72;4.05;;;;;;;;;;6239485;28;20057;-78
2023/08/16 15:02:42;;;;;;;4.38;3.97;;;;;;;;;;6244444;28;20067;-83
2023/08/16 15:05:44;;;;;;;4.72;4.25;;;;;;;;;;6242545;28;20710;-79
2023/08/16 15:08:46;;;;;;;4.43;4.03;;;;;;;;;;6245795;28;20053;-83
2023/08/16 15:11:48;;;;;;;5.45;3.83;;;;;;;;;;6242236;28;20054;-79
2023/08/16 15:14:49;;;;;;;4.85;3.72;;;;;;;;;;6241764;28;20058;-81
2023/08/16 15:17:51;;;;;;;6.85;4.20;;;;;;;;;;6242809;28;20254;-82
2023/08/16 15:20:52;;;;;;;6.50;3.67;;;;;;;;;;6240838;28;20065;-84
2023/08/16 15:23:55;;;;;;;4.30;3.90;;;;;;;;;;6239794;28;20053;-83
2023/08/16 15:26:57;;;;;;;4.60;3.70;;;;;;;;;;6245627;28;20112;-83
2023/08/16 15:29:58;;;;;;;5.50;3.90;;;;;;;;;;6239262;28;20060;-83
2023/08/16 15:33:00;;;;;;;6.30;4.35;;;;;;;;;;6241473;28;20050;-79
2023/08/16 15:36:01;;;;;;;6.97;3.80;;;;;;;;;;6243882;28;20061;-81
2023/08/16 15:39:04;;;;;;;5.35;4.78;;;;;;;;;;6242326;28;20100;-82
2023/08/16 15:42:06;;;;;;;4.30;4.00;;;;;;;;;;6238558;28;20108;-83
2023/08/16 15:45:08;;;;;;;4.82;4.32;;;;;;;;;;6242376;28;20061;-82
2023/08/16 15:48:09;;;;;;;6.13;4.00;;;;;;;;;;6241397;28;20092;-82
2023/08/16 15:51:11;;;;;;;4.82;3.88;;;;;;;;;;6241067;28;20049;-82
2023/08/16 15:54:14;;;;;;;5.80;4.00;;;;;;;;;;6240973;28;20045;-81
2023/08/16 15:57:15;;;;;;;5.13;4.35;;;;;;;;;;6244739;28;20072;-80
2023/08/16 16:00:17;;;;;;;4.50;4.10;;;;;;;;;;6237877;28;20273;-81
2023/08/16 16:03:19;;;;;;;6.40;4.30;;;;;;;;;;6240798;28;20238;-83
2023/08/16 16:06:20;;;;;;;5.30;4.38;;;;;;;;;;6240077;28;20053;-83
2023/08/16 16:09:23;;;;;;;5.40;4.90;;;;;;;;;;6239600;28;20135;-83
2023/08/16 16:12:24;;;;;;;5.43;4.40;;;;;;;;;;6240062;28;20061;-80
2023/08/16 16:15:26;;;;;;;5.07;4.57;;;;;;;;;;6243615;28;20061;-81
2023/08/16 16:18:27;;;;;;;5.13;4.63;;;;;;;;;;6239804;28;20049;-82
2023/08/16 16:21:28;;;;;;;8.10;5.07;;;;;;;;;;6240383;28;20211;-79
2023/08/16 16:24:33;;;;;;;6.07;4.93;;;;;;;;;;6239846;28;20053;-81
2023/08/16 16:27:34;;;;;;;5.22;4.72;;;;;;;;;;6241345;28;21264;-83
2023/08/16 16:30:36;;;;;;;9.85;5.07;;;;;;;;;;6239010;28;20042;-82
2023/08/16 16:33:37;;;;;;;4.97;4.47;;;;;;;;;;6239220;28;20055;-78
2023/08/16 16:36:39;;;;;;;4.95;4.50;;;;;;;;;;6242274;28;20265;-81
2023/08/16 16:39:41;;;;;;;5.28;4.50;;;;;;;;;;6239716;28;20053;-82
2023/08/16 16:42:43;;;;;;;6.28;4.28;;;;;;;;;;6240581;28;20337;-82
2023/08/16 16:45:45;;;;;;;5.57;4.72;;;;;;;;;;6239472;28;20057;-78
2023/08/16 16:48:46;;;;;;;6.32;4.80;;;;;;;;;;6236907;28;20066;-81
2023/08/16 16:51:47;;;;;;;5.32;4.82;;;;;;;;;;6239748;28;20050;-81
2023/08/16 16:54:50;;;;;;;6.40;4.50;;;;;;;;;;6239087;28;20065;-81
2023/08/16 16:57:52;;;;;;;7.72;4.97;;;;;;;;;;6238082;28;20061;-80
2023/08/16 17:00:55;;;;;;;6.40;4.70;;;;;;;;;;6241193;28;20234;-78
2023/08/16 17:03:57;;;;;;;5.40;4.93;;;;;;;;;;6241169;28;20456;-79
2023/08/16 17:06:58;;;;;;;6.17;4.50;;;;;;;;;;6238598;28;20249;-78
2023/08/16 17:10:01;;;;;;;7.27;4.80;;;;;;;;;;6238779;28;20066;-78
2023/08/16 17:13:02;;;;;;;6.03;4.95;;;;;;;;;;6239049;28;20644;-79
2023/08/16 17:16:04;;;;;;;5.20;4.73;;;;;;;;;;6238617;28;20087;-78
2023/08/16 17:19:05;;;;;;;7.93;5.38;;;;;;;;;;6238158;28;20061;-79
2023/08/16 17:22:07;;;;;;;5.70;5.03;;;;;;;;;;6239084;28;20053;-79
2023/08/16 17:25:10;;;;;;;7.93;5.20;;;;;;;;;;6239330;28;20442;-78
2023/08/16 17:28:12;;;;;;;6.70;4.80;;;;;;;;;;6236721;28;20088;-80
2023/08/16 17:31:13;;;;;;;5.60;5.10;;;;;;;;;;6241503;28;20056;-80
2023/08/16 17:34:15;;;;;;;7.32;4.97;;;;;;;;;;6238538;28;20355;-82
2023/08/16 17:37:18;;;;;;;8.20;5.43;;;;;;;;;;6237676;28;20284;-76
2023/08/16 17:40:21;;;;;;;6.88;4.90;;;;;;;;;;6235339;28;20129;-76
2023/08/16 17:43:23;;;;;;;6.05;5.20;;;;;;;;;;6234635;28;20059;-78
2023/08/16 17:46:24;;;;;;;12.73;5.60;;;;;;;;;;6239850;28;20057;-78
2023/08/16 17:49:26;;;;;;;8.40;5.53;;;;;;;;;;6238282;28;20133;-80
2023/08/16 17:52:27;;;;;;;6.18;5.10;;;;;;;;;;6239141;28;20345;-80
2023/08/16 17:55:30;;;;;;;6.53;4.67;;;;;;;;;;6240304;28;20104;-77
2023/08/16 17:58:31;;;;;;;7.20;5.03;;;;;;;;;;6236914;28;20226;-78
2023/08/16 18:01:33;;;;;;;6.35;4.90;;;;;;;;;;6236054;28;20252;-81
2023/08/16 18:04:35;;;;;;;7.03;4.97;;;;;;;;;;6236250;28;20370;-78
2023/08/16 18:07:37;;;;;;;6.15;4.93;;;;;;;;;;6237284;28;20072;-76
2023/08/16 18:10:38;;;;;;;;;;;;;;;;;;6238440;28;20119;-76
2023/08/16 18:13:41;;;;;;;5.70;5.10;;;;;;;;;;6236376;28;20157;-78